Time;durP1;ratioP1;P1;durP2;ratioP2;P2;SDS_P1;SDS_P2;PMS_P1;PMS_P2;Temp;Humidity;BMP_temperature;BMP_pressure;BME280_temperature;BME280_humidity;BME280_pressure;Samples;Min_cycle;Max_cycle;Signal;HPM_P1;HPM_P2
2022/07/01 00:00:56;;;;;;;7.10;6.50;;;;;;;;;;5134174;27;20860;-68
2022/07/01 00:03:25;;;;;;;9.17;7.50;;;;;;;;;;5134024;27;20537;-68
2022/07/01 00:05:53;;;;;;;8.40;7.50;;;;;;;;;;5133875;27;20729;-69
2022/07/01 00:08:21;;;;;;;9.13;6.83;;;;;;;;;;5134843;27;20514;-68
2022/07/01 00:10:49;;;;;;;7.47;6.57;;;;;;;;;;5134020;27;20730;-69
2022/07/01 00:13:17;;;;;;;10.10;5.63;;;;;;;;;;5116570;27;20466;-69
2022/07/01 00:15:44;;;;;;;9.63;6.67;;;;;;;;;;5114817;28;20478;-70
2022/07/01 00:18:12;;;;;;;6.97;5.77;;;;;;;;;;5114541;28;20481;-70
2022/07/01 00:20:41;;;;;;;7.43;6.53;;;;;;;;;;5115156;28;20870;-69
2022/07/01 00:23:09;;;;;;;6.77;6.10;;;;;;;;;;5114091;28;20541;-70
2022/07/01 00:25:37;;;;;;;4.87;4.20;;;;;;;;;;5115450;28;20446;-70
2022/07/01 00:28:05;;;;;;;4.40;3.97;;;;;;;;;;5115086;28;20458;-70
2022/07/01 00:30:33;;;;;;;4.53;4.13;;;;;;;;;;5124633;27;20815;-69
2022/07/01 00:33:01;;;;;;;5.93;4.40;;;;;;;;;;5134270;27;20453;-69
2022/07/01 00:35:28;;;;;;;4.37;3.20;;;;;;;;;;5135246;28;20962;-69
2022/07/01 00:37:58;;;;;;;5.30;3.30;;;;;;;;;;5134736;28;20930;-69
2022/07/01 00:40:26;;;;;;;3.57;2.90;;;;;;;;;;5135741;28;20450;-69
2022/07/01 00:42:54;;;;;;;4.67;2.50;;;;;;;;;;5136241;28;20446;-70
2022/07/01 00:45:22;;;;;;;4.43;2.80;;;;;;;;;;5134241;28;20454;-69
2022/07/01 00:47:51;;;;;;;3.40;2.80;;;;;;;;;;5135508;28;20454;-70
2022/07/01 00:50:19;;;;;;;5.00;2.90;;;;;;;;;;5135438;28;20548;-70
2022/07/01 00:52:47;;;;;;;4.63;3.70;;;;;;;;;;5135610;28;20473;-70
2022/07/01 00:55:17;;;;;;;4.80;3.30;;;;;;;;;;5135093;28;21031;-70
2022/07/01 00:57:45;;;;;;;3.73;3.20;;;;;;;;;;5134747;28;20609;-70
2022/07/01 01:00:14;;;;;;;4.10;3.07;;;;;;;;;;5135143;28;20442;-70
2022/07/01 01:02:43;;;;;;;3.50;2.80;;;;;;;;;;5135320;28;20522;-70
2022/07/01 01:05:11;;;;;;;3.80;3.10;;;;;;;;;;5133413;28;20442;-70
2022/07/01 01:07:39;;;;;;;4.67;3.43;;;;;;;;;;5114838;28;20447;-70
2022/07/01 01:10:07;;;;;;;5.23;3.20;;;;;;;;;;5114445;28;20888;-70
2022/07/01 01:12:37;;;;;;;7.90;3.40;;;;;;;;;;5113846;28;20458;-70
2022/07/01 01:15:05;;;;;;;3.33;2.67;;;;;;;;;;5114215;28;20728;-70
2022/07/01 01:17:33;;;;;;;5.57;3.20;;;;;;;;;;5114782;28;20533;-70
2022/07/01 01:20:01;;;;;;;4.00;2.57;;;;;;;;;;5114711;28;20576;-69
2022/07/01 01:22:30;;;;;;;5.30;3.20;;;;;;;;;;5113495;28;20454;-70
2022/07/01 01:24:59;;;;;;;4.90;3.30;;;;;;;;;;5116412;28;20481;-70
2022/07/01 01:27:27;;;;;;;4.80;3.60;;;;;;;;;;5117067;28;20474;-69
2022/07/01 01:29:55;;;;;;;5.67;3.27;;;;;;;;;;5118454;28;20458;-70
2022/07/01 01:32:23;;;;;;;3.93;3.23;;;;;;;;;;5118296;28;20891;-70
2022/07/01 01:34:51;;;;;;;5.00;3.20;;;;;;;;;;5118716;28;20489;-70
2022/07/01 01:37:18;;;;;;;6.20;5.10;;;;;;;;;;5117692;28;20960;-70
2022/07/01 01:39:48;;;;;;;4.70;3.67;;;;;;;;;;5118135;28;20454;-70
2022/07/01 01:42:16;;;;;;;4.10;3.70;;;;;;;;;;5127359;27;20450;-70
2022/07/01 01:44:46;;;;;;;8.93;3.97;;;;;;;;;;5138371;27;20594;-70
2022/07/01 01:47:14;;;;;;;4.70;4.20;;;;;;;;;;5138499;27;20470;-69
2022/07/01 01:49:42;;;;;;;4.63;3.80;;;;;;;;;;5138344;27;20488;-70
2022/07/01 01:52:10;;;;;;;8.00;4.10;;;;;;;;;;5137044;27;20528;-70
2022/07/01 01:54:40;;;;;;;5.63;4.17;;;;;;;;;;5136854;27;20553;-69
2022/07/01 01:57:09;;;;;;;4.33;3.60;;;;;;;;;;5123731;27;20501;-70
2022/07/01 01:59:37;;;;;;;4.27;3.70;;;;;;;;;;5117632;28;20498;-70
2022/07/01 02:02:05;;;;;;;4.40;3.93;;;;;;;;;;5117983;28;20845;-70
2022/07/01 02:04:33;;;;;;;4.13;3.57;;;;;;;;;;5117905;28;20457;-69
2022/07/01 02:07:05;;;;;;;4.17;3.53;;;;;;;;;;5116590;28;20438;-70
2022/07/01 02:09:33;;;;;;;4.30;3.63;;;;;;;;;;5117913;28;20459;-70
2022/07/01 02:12:01;;;;;;;4.37;3.33;;;;;;;;;;5116340;28;20461;-70
2022/07/01 02:14:30;;;;;;;6.20;4.70;;;;;;;;;;5116990;28;20459;-70
2022/07/01 02:16:58;;;;;;;6.57;3.70;;;;;;;;;;5117117;27;20482;-70
2022/07/01 02:19:26;;;;;;;5.40;4.03;;;;;;;;;;5117430;28;20458;-70
2022/07/01 02:21:54;;;;;;;4.40;3.47;;;;;;;;;;5117022;28;20474;-70
2022/07/01 02:24:22;;;;;;;5.00;4.10;;;;;;;;;;5116563;28;20447;-70
2022/07/01 02:26:50;;;;;;;6.60;5.60;;;;;;;;;;5117666;28;20549;-70
2022/07/01 02:29:18;;;;;;;4.60;4.13;;;;;;;;;;5117204;28;20541;-69
2022/07/01 02:31:47;;;;;;;5.20;4.20;;;;;;;;;;5117517;28;20957;-70
2022/07/01 02:34:15;;;;;;;9.03;4.37;;;;;;;;;;5115987;28;20754;-70
2022/07/01 02:36:42;;;;;;;6.20;4.60;;;;;;;;;;5117433;28;20486;-69
2022/07/01 02:39:10;;;;;;;8.10;4.93;;;;;;;;;;5116758;28;20461;-70
2022/07/01 02:44:19;;;;;;;8.77;5.07;;;;;;;;;;5116129;28;20437;-70
2022/07/01 02:46:50;;;;;;;8.83;6.20;;;;;;;;;;5116576;28;20554;-68
2022/07/01 02:49:18;;;;;;;7.77;5.03;;;;;;;;;;5117283;28;20529;-70
2022/07/01 02:51:48;;;;;;;7.43;5.83;;;;;;;;;;5116966;28;20486;-70
2022/07/01 02:54:16;;;;;;;8.80;6.67;;;;;;;;;;5116712;28;20462;-70
2022/07/01 02:56:44;;;;;;;7.37;5.43;;;;;;;;;;5116447;28;20486;-70
2022/07/01 02:59:12;;;;;;;8.00;5.70;;;;;;;;;;5116483;28;20490;-70
2022/07/01 03:01:40;;;;;;;8.57;6.13;;;;;;;;;;5116700;28;20529;-70
2022/07/01 03:04:09;;;;;;;6.67;5.37;;;;;;;;;;5116529;28;20451;-70
2022/07/01 03:06:37;;;;;;;7.97;5.23;;;;;;;;;;5115358;28;20462;-70
2022/07/01 03:09:05;;;;;;;6.77;5.17;;;;;;;;;;5116318;28;20443;-69
2022/07/01 03:11:33;;;;;;;7.13;5.80;;;;;;;;;;5115739;27;20451;-70
2022/07/01 03:14:00;;;;;;;8.13;6.43;;;;;;;;;;5114736;28;20800;-70
2022/07/01 03:16:28;;;;;;;10.33;7.10;;;;;;;;;;5113831;28;20478;-70
2022/07/01 03:19:01;;;;;;;7.70;5.83;;;;;;;;;;5134799;27;20515;-71
2022/07/01 03:21:34;;;;;;;6.20;5.20;;;;;;;;;;5135803;27;20462;-70
2022/07/01 03:24:02;;;;;;;9.40;6.17;;;;;;;;;;5136184;27;20534;-70
2022/07/01 03:26:30;;;;;;;6.17;5.40;;;;;;;;;;5136359;27;20532;-70
2022/07/01 03:28:57;;;;;;;6.20;5.60;;;;;;;;;;5135303;27;20545;-69
2022/07/01 03:31:25;;;;;;;7.20;5.70;;;;;;;;;;5134264;27;20979;-71
2022/07/01 03:33:53;;;;;;;9.23;6.77;;;;;;;;;;5134051;27;20497;-69
2022/07/01 03:36:21;;;;;;;8.70;6.13;;;;;;;;;;5134172;27;20544;-70
2022/07/01 03:38:50;;;;;;;7.70;5.90;;;;;;;;;;5133091;27;20723;-70
2022/07/01 03:41:18;;;;;;;8.40;5.93;;;;;;;;;;5136954;27;20462;-69
2022/07/01 03:43:46;;;;;;;6.57;5.80;;;;;;;;;;5136048;27;20481;-69
2022/07/01 03:46:14;;;;;;;8.77;6.80;;;;;;;;;;5134954;27;20450;-69
2022/07/01 03:48:42;;;;;;;7.70;6.47;;;;;;;;;;5134108;27;20453;-69
2022/07/01 03:51:10;;;;;;;7.60;6.10;;;;;;;;;;5134505;27;20450;-69
2022/07/01 03:56:24;;;;;;;8.87;6.10;;;;;;;;;;5134438;27;20417;-68
2022/07/01 03:58:52;;;;;;;7.47;6.67;;;;;;;;;;5134711;27;20568;-69
2022/07/01 04:01:20;;;;;;;7.87;6.53;;;;;;;;;;5134140;27;20445;-69
2022/07/01 04:03:48;;;;;;;7.30;6.50;;;;;;;;;;5135184;27;20453;-69
2022/07/01 04:06:16;;;;;;;8.30;7.40;;;;;;;;;;5134009;27;20450;-69
2022/07/01 04:08:44;;;;;;;6.80;6.20;;;;;;;;;;5134516;27;20557;-69
2022/07/01 04:11:12;;;;;;;12.00;7.47;;;;;;;;;;5132987;27;20477;-69
2022/07/01 04:13:41;;;;;;;9.63;6.73;;;;;;;;;;5133674;27;20885;-70
2022/07/01 04:16:12;;;;;;;9.60;6.73;;;;;;;;;;5134313;27;20449;-69
2022/07/01 04:18:40;;;;;;;9.17;7.93;;;;;;;;;;5132855;27;20585;-69
2022/07/01 04:24:05;;;;;;;7.37;5.67;;;;;;;;;;5049670;28;20587;-70
2022/07/01 04:26:33;;;;;;;8.20;6.30;;;;;;;;;;5114405;27;20471;-70
2022/07/01 04:29:02;;;;;;;7.20;6.10;;;;;;;;;;5134201;27;20557;-70
2022/07/01 04:31:30;;;;;;;5.80;5.23;;;;;;;;;;5133023;27;20548;-69
2022/07/01 04:33:58;;;;;;;6.63;4.83;;;;;;;;;;5133261;27;20457;-69
2022/07/01 04:36:26;;;;;;;4.40;3.83;;;;;;;;;;5133220;28;20452;-69
2022/07/01 04:38:57;;;;;;;6.60;4.03;;;;;;;;;;5133928;28;20492;-69
2022/07/01 04:44:11;;;;;;;7.20;5.37;;;;;;;;;;5132732;28;20552;-70
2022/07/01 04:46:39;;;;;;;10.10;6.60;;;;;;;;;;5134465;28;20473;-70
2022/07/01 04:49:06;;;;;;;11.03;8.30;;;;;;;;;;5134444;28;20457;-70
2022/07/01 04:51:35;;;;;;;8.20;7.40;;;;;;;;;;5133794;28;20453;-70
2022/07/01 04:54:03;;;;;;;11.07;9.40;;;;;;;;;;5135162;28;20446;-70
2022/07/01 04:56:30;;;;;;;12.73;9.53;;;;;;;;;;5122117;28;20458;-70
2022/07/01 04:59:00;;;;;;;13.80;10.40;;;;;;;;;;5144218;27;20480;-70
2022/07/01 05:01:31;;;;;;;10.63;9.53;;;;;;;;;;5159605;27;20437;-69
2022/07/01 05:03:59;;;;;;;12.27;9.87;;;;;;;;;;5159478;27;20751;-70
2022/07/01 05:06:33;;;;;;;11.97;10.77;;;;;;;;;;5158109;27;20464;-70
2022/07/01 05:09:02;;;;;;;15.40;13.70;;;;;;;;;;5159753;27;20436;-70
2022/07/01 05:11:30;;;;;;;13.83;12.37;;;;;;;;;;5158248;27;20543;-69
2022/07/01 05:13:58;;;;;;;18.33;16.47;;;;;;;;;;5158032;27;20536;-69
2022/07/01 05:16:25;;;;;;;14.50;13.00;;;;;;;;;;5145409;27;20756;-68
2022/07/01 05:21:58;;;;;;;14.40;12.87;;;;;;;;;;5137511;27;20424;-68
2022/07/01 05:24:27;;;;;;;16.97;14.13;;;;;;;;;;5132719;27;20466;-68
2022/07/01 05:26:55;;;;;;;15.60;13.63;;;;;;;;;;5135990;27;20465;-70
2022/07/01 05:29:22;;;;;;;13.33;11.93;;;;;;;;;;5136055;27;20489;-69
2022/07/01 05:31:50;;;;;;;12.67;11.40;;;;;;;;;;5135774;27;20446;-69
2022/07/01 05:34:19;;;;;;;10.73;9.10;;;;;;;;;;5134839;27;20726;-70
2022/07/01 05:36:47;;;;;;;9.77;8.77;;;;;;;;;;5135443;27;20536;-69
2022/07/01 05:39:15;;;;;;;10.93;7.70;;;;;;;;;;5135439;27;21267;-69
2022/07/01 05:41:43;;;;;;;8.63;7.50;;;;;;;;;;5119202;27;20457;-70
2022/07/01 05:44:10;;;;;;;12.70;8.17;;;;;;;;;;5125828;27;20481;-70
2022/07/01 05:46:39;;;;;;;7.60;6.80;;;;;;;;;;5135277;27;20478;-69
2022/07/01 05:49:06;;;;;;;10.47;6.83;;;;;;;;;;5134424;27;20921;-69
2022/07/01 05:51:38;;;;;;;6.63;5.90;;;;;;;;;;5132152;27;20465;-69
2022/07/01 05:54:07;;;;;;;7.00;5.03;;;;;;;;;;5131887;27;20497;-70
2022/07/01 05:56:34;;;;;;;6.60;4.07;;;;;;;;;;5113824;28;20438;-69
2022/07/01 05:59:02;;;;;;;4.83;3.93;;;;;;;;;;5118053;27;20742;-69
2022/07/01 06:01:30;;;;;;;3.77;3.10;;;;;;;;;;5113584;27;20446;-70
2022/07/01 06:03:58;;;;;;;3.43;2.73;;;;;;;;;;5114289;28;20481;-70
2022/07/01 06:06:26;;;;;;;3.20;2.40;;;;;;;;;;5115230;28;20458;-70
2022/07/01 06:08:57;;;;;;;3.80;1.93;;;;;;;;;;5121058;27;20446;-69
2022/07/01 06:11:25;;;;;;;4.20;2.80;;;;;;;;;;5119684;27;20466;-69
2022/07/01 06:13:53;;;;;;;4.23;2.50;;;;;;;;;;5113997;28;20443;-70
2022/07/01 06:16:22;;;;;;;2.67;1.43;;;;;;;;;;5134378;27;20535;-69
2022/07/01 06:18:50;;;;;;;3.70;1.73;;;;;;;;;;5146189;27;20573;-70
2022/07/01 06:21:18;;;;;;;2.23;1.07;;;;;;;;;;5134578;27;20542;-69
2022/07/01 06:23:46;;;;;;;1.50;0.80;;;;;;;;;;5135131;27;20477;-69
2022/07/01 06:26:17;;;;;;;2.43;1.13;;;;;;;;;;5133641;27;20842;-69
2022/07/01 06:28:46;;;;;;;1.60;0.80;;;;;;;;;;5135302;27;20538;-69
2022/07/01 06:31:15;;;;;;;2.20;1.10;;;;;;;;;;5135945;27;20457;-71
2022/07/01 06:33:43;;;;;;;2.40;0.90;;;;;;;;;;5138557;27;20449;-71
2022/07/01 06:36:12;;;;;;;2.37;0.80;;;;;;;;;;5156078;27;20919;-70
2022/07/01 06:38:40;;;;;;;1.70;0.80;;;;;;;;;;5153751;27;20492;-70
2022/07/01 06:44:01;;;;;;;2.33;0.80;;;;;;;;;;5128253;27;21099;-71
2022/07/01 06:46:30;;;;;;;1.90;1.07;;;;;;;;;;5115201;28;21048;-70
2022/07/01 06:48:59;;;;;;;1.53;0.60;;;;;;;;;;5114713;28;20533;-70
2022/07/01 06:51:29;;;;;;;3.20;0.90;;;;;;;;;;5119294;27;20534;-68
2022/07/01 06:53:58;;;;;;;1.50;0.87;;;;;;;;;;5134321;27;20450;-70
2022/07/01 06:56:26;;;;;;;1.50;0.80;;;;;;;;;;5126564;27;20465;-70
2022/07/01 06:58:54;;;;;;;3.03;1.40;;;;;;;;;;5131963;27;20556;-70
2022/07/01 07:01:25;;;;;;;2.37;1.30;;;;;;;;;;5133728;27;20485;-69
2022/07/01 07:03:53;;;;;;;3.50;1.00;;;;;;;;;;5135147;27;20576;-68
2022/07/01 07:06:21;;;;;;;2.40;1.03;;;;;;;;;;5134106;27;20474;-69
2022/07/01 07:08:52;;;;;;;1.60;1.00;;;;;;;;;;5123136;27;20451;-69
2022/07/01 07:11:22;;;;;;;3.00;1.10;;;;;;;;;;5114476;28;20861;-69
2022/07/01 07:13:50;;;;;;;3.03;1.37;;;;;;;;;;5125536;27;20433;-69
2022/07/01 07:16:21;;;;;;;2.20;1.10;;;;;;;;;;5116818;27;20465;-70
2022/07/01 07:18:50;;;;;;;2.93;1.40;;;;;;;;;;5117992;27;20470;-69
2022/07/01 07:21:19;;;;;;;4.50;1.30;;;;;;;;;;5134502;27;20522;-69
2022/07/01 07:23:46;;;;;;;3.20;1.70;;;;;;;;;;5146804;27;20537;-68
2022/07/01 07:26:14;;;;;;;2.87;1.30;;;;;;;;;;5154483;27;20471;-70
2022/07/01 07:28:42;;;;;;;2.30;1.40;;;;;;;;;;5141774;27;20485;-69
2022/07/01 07:31:10;;;;;;;3.93;1.30;;;;;;;;;;5133702;27;20449;-70
2022/07/01 07:33:38;;;;;;;2.33;2.10;;;;;;;;;;5133535;27;20453;-70
2022/07/01 07:36:07;;;;;;;5.17;2.27;;;;;;;;;;5132978;27;20858;-70
2022/07/01 07:38:35;;;;;;;3.17;2.00;;;;;;;;;;5133126;27;20516;-70
2022/07/01 07:41:03;;;;;;;3.33;2.47;;;;;;;;;;5132493;27;20471;-69
2022/07/01 07:43:32;;;;;;;5.20;2.60;;;;;;;;;;5132497;27;20507;-69
2022/07/01 07:46:05;;;;;;;3.27;2.97;;;;;;;;;;5132717;27;20457;-70
2022/07/01 07:48:33;;;;;;;6.63;3.00;;;;;;;;;;5123802;27;20531;-70
2022/07/01 07:51:01;;;;;;;4.10;3.33;;;;;;;;;;5112794;28;20459;-69
2022/07/01 07:53:31;;;;;;;7.70;3.47;;;;;;;;;;5111545;28;20746;-69
2022/07/01 07:56:00;;;;;;;6.93;4.20;;;;;;;;;;5113420;28;20465;-69
2022/07/01 07:58:27;;;;;;;5.33;2.90;;;;;;;;;;5111656;27;20765;-70
2022/07/01 08:00:55;;;;;;;5.33;2.90;;;;;;;;;;5128259;27;20469;-70
2022/07/01 08:03:23;;;;;;;4.40;3.30;;;;;;;;;;5132758;27;20457;-70
2022/07/01 08:05:51;;;;;;;5.43;2.73;;;;;;;;;;5132476;27;20453;-70
2022/07/01 08:08:22;;;;;;;6.07;2.93;;;;;;;;;;5132997;27;20716;-71
2022/07/01 08:10:51;;;;;;;3.80;2.03;;;;;;;;;;5131674;27;20450;-69
2022/07/01 08:13:19;;;;;;;3.90;2.40;;;;;;;;;;5132938;27;20740;-70
2022/07/01 08:15:50;;;;;;;4.33;2.53;;;;;;;;;;5132361;27;20446;-70
2022/07/01 08:18:18;;;;;;;5.10;2.13;;;;;;;;;;5132466;27;20477;-70
2022/07/01 08:20:46;;;;;;;4.07;2.17;;;;;;;;;;5133190;27;20469;-70
2022/07/01 08:23:14;;;;;;;5.40;2.20;;;;;;;;;;5120748;27;20777;-70
2022/07/01 08:25:44;;;;;;;7.37;2.70;;;;;;;;;;5119869;27;20450;-69
2022/07/01 08:28:13;;;;;;;6.77;2.93;;;;;;;;;;5133328;27;20453;-69
2022/07/01 08:30:41;;;;;;;9.03;2.87;;;;;;;;;;5132040;27;20449;-70
2022/07/01 08:33:09;;;;;;;3.17;2.03;;;;;;;;;;5130284;27;21012;-69
2022/07/01 08:35:37;;;;;;;2.90;2.00;;;;;;;;;;5131590;27;20575;-69
2022/07/01 08:38:05;;;;;;;4.40;2.20;;;;;;;;;;5131298;28;20446;-69
2022/07/01 08:40:33;;;;;;;6.10;2.00;;;;;;;;;;5131280;28;21007;-70
2022/07/01 08:43:01;;;;;;;4.23;1.83;;;;;;;;;;5132956;28;20445;-68
2022/07/01 08:45:32;;;;;;;5.03;2.00;;;;;;;;;;5116549;27;20477;-70
2022/07/01 08:48:05;;;;;;;4.40;1.90;;;;;;;;;;5117553;28;20465;-71
2022/07/01 08:50:37;;;;;;;2.83;2.10;;;;;;;;;;5119814;28;20490;-70
2022/07/01 08:53:10;;;;;;;4.30;3.80;;;;;;;;;;5145849;27;20532;-71
2022/07/01 09:01:33;;;;;;;6.50;3.07;;;;;;;;;;5132708;28;20458;-69
2022/07/01 09:04:14;;;;;;;2.80;1.73;;;;;;;;;;5129994;28;20473;-69
2022/07/01 09:06:43;;;;;;;6.10;2.30;;;;;;;;;;5132620;27;20457;-69
2022/07/01 09:09:17;;;;;;;4.60;2.00;;;;;;;;;;5132510;28;20485;-69
2022/07/01 09:11:53;;;;;;;3.70;2.13;;;;;;;;;;5130362;28;20541;-70
2022/07/01 09:14:23;;;;;;;2.93;1.60;;;;;;;;;;5115353;27;20462;-70
2022/07/01 09:16:57;;;;;;;2.40;1.47;;;;;;;;;;5114113;28;20448;-68
2022/07/01 09:19:26;;;;;;;2.53;1.70;;;;;;;;;;5127915;28;21037;-71
2022/07/01 09:21:56;;;;;;;3.90;1.93;;;;;;;;;;5128472;28;20795;-71
2022/07/01 09:24:26;;;;;;;2.47;1.60;;;;;;;;;;5152816;27;20444;-71
2022/07/01 09:26:54;;;;;;;5.00;2.20;;;;;;;;;;5112910;28;20760;-71
2022/07/01 09:29:22;;;;;;;4.10;2.50;;;;;;;;;;5110296;28;20946;-70
2022/07/01 09:31:50;;;;;;;3.23;2.20;;;;;;;;;;5111442;28;20458;-71
2022/07/01 09:34:22;;;;;;;3.27;2.40;;;;;;;;;;5127412;28;20579;-69
2022/07/01 09:36:54;;;;;;;3.73;2.40;;;;;;;;;;5132257;28;20450;-73
2022/07/01 09:39:25;;;;;;;3.70;1.87;;;;;;;;;;5131986;28;20485;-70
2022/07/01 09:41:57;;;;;;;3.63;2.10;;;;;;;;;;5114697;28;20817;-71
2022/07/01 09:44:29;;;;;;;3.13;2.03;;;;;;;;;;5145164;27;20444;-69
2022/07/01 09:47:01;;;;;;;3.27;2.03;;;;;;;;;;5156094;27;20851;-69
2022/07/01 09:49:33;;;;;;;6.27;2.40;;;;;;;;;;5157025;27;20441;-69
2022/07/01 09:52:01;;;;;;;3.20;2.20;;;;;;;;;;5155727;27;20743;-69
2022/07/01 09:54:32;;;;;;;2.73;2.00;;;;;;;;;;5133300;27;20477;-69
2022/07/01 09:57:00;;;;;;;3.03;2.00;;;;;;;;;;5119708;27;20870;-69
2022/07/01 09:59:35;;;;;;;4.17;2.17;;;;;;;;;;5139414;27;20477;-69
2022/07/01 10:02:04;;;;;;;4.40;2.60;;;;;;;;;;5135112;27;20445;-69
2022/07/01 10:04:37;;;;;;;5.13;3.40;;;;;;;;;;5132342;27;20465;-69
2022/07/01 10:07:15;;;;;;;4.40;2.30;;;;;;;;;;5134559;27;20453;-69
2022/07/01 10:09:52;;;;;;;3.13;2.80;;;;;;;;;;5134546;27;20453;-70
2022/07/01 10:12:35;;;;;;;4.20;2.43;;;;;;;;;;5119548;27;20454;-71
2022/07/01 10:15:06;;;;;;;3.27;2.90;;;;;;;;;;5127910;27;20449;-69
2022/07/01 10:17:41;;;;;;;3.27;2.70;;;;;;;;;;5133299;27;20457;-71
2022/07/01 10:20:15;;;;;;;4.60;2.97;;;;;;;;;;5133670;27;20485;-69
2022/07/01 10:22:44;;;;;;;4.47;3.03;;;;;;;;;;5131447;27;20454;-69
2022/07/01 10:25:30;;;;;;;5.47;3.30;;;;;;;;;;5126348;27;20450;-71
2022/07/01 10:28:17;;;;;;;7.37;3.20;;;;;;;;;;5134544;27;21097;-69
2022/07/01 10:30:51;;;;;;;3.97;3.43;;;;;;;;;;5130595;27;20453;-69
2022/07/01 10:33:30;;;;;;;4.57;3.50;;;;;;;;;;5141562;27;20503;-70
2022/07/01 10:36:05;;;;;;;4.30;3.30;;;;;;;;;;5142613;27;20540;-70
2022/07/01 10:38:33;;;;;;;4.00;3.60;;;;;;;;;;5147688;27;20595;-69
2022/07/01 10:41:12;;;;;;;4.60;3.80;;;;;;;;;;5129002;27;20445;-69
2022/07/01 10:43:41;;;;;;;4.37;3.23;;;;;;;;;;5130360;27;20445;-69
2022/07/01 10:46:10;;;;;;;4.63;3.60;;;;;;;;;;5135378;27;20445;-68
2022/07/01 10:48:39;;;;;;;4.20;3.80;;;;;;;;;;5133913;27;20487;-70
2022/07/01 10:51:15;;;;;;;5.40;3.80;;;;;;;;;;5132876;27;20446;-70
2022/07/01 10:53:49;;;;;;;5.80;3.40;;;;;;;;;;5134338;27;20460;-70
2022/07/01 10:56:18;;;;;;;5.30;4.33;;;;;;;;;;5133853;27;20499;-70
2022/07/01 10:58:47;;;;;;;5.53;4.03;;;;;;;;;;5133741;27;20466;-70
2022/07/01 11:01:16;;;;;;;5.53;4.00;;;;;;;;;;5134617;27;20454;-70
2022/07/01 11:03:47;;;;;;;4.27;3.80;;;;;;;;;;5131883;27;20785;-69
2022/07/01 11:06:20;;;;;;;4.97;3.43;;;;;;;;;;5129486;27;20442;-69
2022/07/01 11:08:53;;;;;;;4.23;3.10;;;;;;;;;;5121059;27;20468;-70
2022/07/01 11:11:22;;;;;;;6.80;3.77;;;;;;;;;;5121616;27;20438;-68
2022/07/01 11:13:50;;;;;;;4.27;3.50;;;;;;;;;;5130836;27;20454;-70
2022/07/01 11:16:18;;;;;;;5.70;4.23;;;;;;;;;;5127078;27;20505;-70
2022/07/01 11:18:50;;;;;;;4.67;4.10;;;;;;;;;;5130890;27;20454;-70
2022/07/01 11:21:20;;;;;;;5.33;4.83;;;;;;;;;;5130678;27;20854;-69
2022/07/01 11:23:54;;;;;;;6.60;5.20;;;;;;;;;;5119473;27;20858;-69
2022/07/01 11:26:25;;;;;;;11.10;6.60;;;;;;;;;;5115387;27;20462;-68
2022/07/01 11:28:53;;;;;;;5.50;4.60;;;;;;;;;;5130118;27;20503;-68
2022/07/01 11:31:32;;;;;;;5.60;5.10;;;;;;;;;;5140148;27;20439;-68
2022/07/01 11:33:59;;;;;;;6.40;5.80;;;;;;;;;;5152816;27;20453;-69
2022/07/01 11:39:25;;;;;;;7.00;6.40;;;;;;;;;;5143547;27;20469;-69
2022/07/01 11:41:58;;;;;;;6.57;5.97;;;;;;;;;;5133639;27;20446;-69
2022/07/01 11:44:36;;;;;;;7.10;6.37;;;;;;;;;;5133628;27;20457;-70
2022/07/01 11:47:05;;;;;;;9.13;7.43;;;;;;;;;;5114406;27;20753;-69
2022/07/01 11:49:33;;;;;;;7.33;6.63;;;;;;;;;;5117197;27;20506;-69
2022/07/01 11:52:04;;;;;;;7.20;6.33;;;;;;;;;;5122094;27;20557;-69
2022/07/01 11:54:40;;;;;;;8.33;7.53;;;;;;;;;;5130087;27;20446;-69
2022/07/01 11:57:12;;;;;;;8.17;6.67;;;;;;;;;;5133914;27;20548;-69
2022/07/01 11:59:40;;;;;;;8.33;7.53;;;;;;;;;;5127529;27;20481;-70
2022/07/01 12:02:11;;;;;;;8.47;7.67;;;;;;;;;;5134073;27;20450;-70
2022/07/01 12:04:39;;;;;;;8.60;7.73;;;;;;;;;;5130845;27;20461;-69
2022/07/01 12:07:10;;;;;;;7.90;7.20;;;;;;;;;;5114021;28;20472;-70
2022/07/01 12:09:41;;;;;;;10.87;9.97;;;;;;;;;;5120577;27;20461;-71
2022/07/01 12:12:09;;;;;;;11.53;10.33;;;;;;;;;;5132727;27;20492;-69
2022/07/01 12:14:38;;;;;;;10.23;8.77;;;;;;;;;;5131924;27;20552;-69
2022/07/01 12:17:18;;;;;;;9.90;9.00;;;;;;;;;;5139694;27;20460;-69
2022/07/01 12:19:47;;;;;;;9.37;8.47;;;;;;;;;;5126467;27;20493;-69
2022/07/01 12:22:20;;;;;;;9.00;8.10;;;;;;;;;;5123860;27;20437;-69
2022/07/01 12:24:48;;;;;;;12.17;9.83;;;;;;;;;;5133481;27;20454;-69
2022/07/01 12:27:16;;;;;;;10.20;9.20;;;;;;;;;;5116982;27;20455;-69
2022/07/01 12:29:54;;;;;;;11.60;9.27;;;;;;;;;;5120276;27;20466;-70
2022/07/01 12:32:24;;;;;;;11.60;9.60;;;;;;;;;;5132883;27;20449;-71
2022/07/01 12:34:53;;;;;;;11.33;10.23;;;;;;;;;;5135155;27;20475;-69
2022/07/01 12:37:31;;;;;;;9.50;8.57;;;;;;;;;;5134636;27;20455;-70
2022/07/01 12:40:08;;;;;;;10.83;8.30;;;;;;;;;;5118638;28;20495;-70
2022/07/01 12:42:40;;;;;;;10.20;9.17;;;;;;;;;;5124911;28;20534;-70
2022/07/01 12:45:13;;;;;;;11.07;10.07;;;;;;;;;;5124017;27;20466;-70
2022/07/01 12:47:47;;;;;;;9.97;9.17;;;;;;;;;;5129860;27;20493;-70
2022/07/01 12:50:22;;;;;;;9.87;8.97;;;;;;;;;;5122154;28;20451;-70
2022/07/01 12:53:07;;;;;;;9.27;8.10;;;;;;;;;;5126434;28;20461;-70
2022/07/01 12:55:40;;;;;;;9.30;7.80;;;;;;;;;;5126967;28;20465;-70
2022/07/01 12:58:09;;;;;;;9.70;8.80;;;;;;;;;;5129303;28;20462;-70
2022/07/01 13:00:39;;;;;;;12.00;9.33;;;;;;;;;;5131239;28;21227;-70
2022/07/01 13:03:08;;;;;;;9.90;8.87;;;;;;;;;;5121785;28;20470;-70
2022/07/01 13:05:38;;;;;;;9.40;8.50;;;;;;;;;;5115083;27;20462;-70
2022/07/01 13:08:08;;;;;;;9.80;8.90;;;;;;;;;;5147771;27;20494;-70
2022/07/01 13:10:37;;;;;;;10.23;9.23;;;;;;;;;;5111661;28;20736;-70
2022/07/01 13:13:16;;;;;;;9.30;8.30;;;;;;;;;;5124266;27;20464;-70
2022/07/01 13:15:44;;;;;;;11.37;9.87;;;;;;;;;;5152451;27;20520;-70
2022/07/01 13:18:14;;;;;;;10.53;9.07;;;;;;;;;;5136012;27;20483;-71
2022/07/01 13:20:45;;;;;;;10.87;7.43;;;;;;;;;;5133068;27;21084;-70
2022/07/01 13:23:17;;;;;;;10.47;8.70;;;;;;;;;;5135771;27;20737;-71
2022/07/01 13:25:45;;;;;;;9.43;7.53;;;;;;;;;;5133122;27;20523;-72
2022/07/01 13:28:13;;;;;;;8.33;7.60;;;;;;;;;;5133404;27;20462;-71
2022/07/01 13:30:43;;;;;;;7.90;7.20;;;;;;;;;;5133802;27;20446;-72
2022/07/01 13:33:11;;;;;;;8.43;7.60;;;;;;;;;;5136723;27;20437;-71
2022/07/01 13:35:39;;;;;;;7.60;6.40;;;;;;;;;;5135778;27;20855;-71
2022/07/01 13:38:10;;;;;;;9.97;6.83;;;;;;;;;;5136151;27;20449;-71
2022/07/01 13:40:39;;;;;;;9.33;8.33;;;;;;;;;;5135551;27;20474;-71
2022/07/01 13:43:09;;;;;;;7.73;7.10;;;;;;;;;;5144655;27;20970;-72
2022/07/01 13:45:40;;;;;;;8.67;7.87;;;;;;;;;;5147673;27;20486;-72
2022/07/01 13:48:08;;;;;;;8.57;7.70;;;;;;;;;;5134967;27;20450;-71
2022/07/01 13:50:36;;;;;;;8.40;7.60;;;;;;;;;;5132432;27;20835;-71
2022/07/01 13:53:04;;;;;;;8.37;7.57;;;;;;;;;;5131265;27;20528;-71
2022/07/01 13:55:33;;;;;;;9.13;8.33;;;;;;;;;;5136156;27;20859;-71
2022/07/01 13:58:02;;;;;;;8.50;7.60;;;;;;;;;;5134724;27;20447;-72
2022/07/01 14:00:30;;;;;;;7.83;7.13;;;;;;;;;;5134898;27;20477;-72
2022/07/01 14:02:59;;;;;;;7.90;7.10;;;;;;;;;;5135021;27;20450;-72
2022/07/01 14:05:27;;;;;;;7.93;7.30;;;;;;;;;;5131413;27;20931;-72
2022/07/01 14:07:58;;;;;;;6.67;5.60;;;;;;;;;;5133108;27;20477;-71
2022/07/01 14:10:27;;;;;;;7.27;6.57;;;;;;;;;;5131705;27;20472;-72
2022/07/01 14:12:55;;;;;;;7.03;6.43;;;;;;;;;;5128022;27;20474;-72
2022/07/01 14:15:24;;;;;;;6.53;5.93;;;;;;;;;;5126178;27;20454;-71
2022/07/01 14:17:52;;;;;;;6.40;5.80;;;;;;;;;;5145184;27;20540;-72
2022/07/01 14:20:23;;;;;;;6.30;5.80;;;;;;;;;;5149871;27;20573;-71
2022/07/01 14:22:53;;;;;;;8.03;7.23;;;;;;;;;;5122407;27;20470;-71
2022/07/01 14:25:22;;;;;;;6.77;5.73;;;;;;;;;;5130259;27;20557;-71
2022/07/01 14:27:50;;;;;;;9.10;6.80;;;;;;;;;;5133832;27;21004;-71
2022/07/01 14:30:18;;;;;;;9.37;8.43;;;;;;;;;;5126996;27;20470;-71
2022/07/01 14:32:48;;;;;;;7.90;6.90;;;;;;;;;;5133916;27;20458;-70
2022/07/01 14:35:20;;;;;;;10.00;7.10;;;;;;;;;;5130761;27;20466;-71
2022/07/01 14:37:48;;;;;;;10.97;7.53;;;;;;;;;;5132603;27;20924;-71
2022/07/01 14:40:16;;;;;;;7.67;6.97;;;;;;;;;;5129661;27;20482;-71
2022/07/01 14:42:46;;;;;;;8.27;7.50;;;;;;;;;;5134065;27;20457;-71
2022/07/01 14:45:15;;;;;;;8.97;7.57;;;;;;;;;;5132473;27;20450;-71
2022/07/01 14:47:43;;;;;;;9.77;7.77;;;;;;;;;;5133740;27;20552;-71
2022/07/01 14:50:18;;;;;;;8.27;7.57;;;;;;;;;;5133346;27;20491;-72
2022/07/01 14:52:46;;;;;;;9.40;7.80;;;;;;;;;;5132111;27;20476;-70
2022/07/01 14:55:19;;;;;;;8.93;8.07;;;;;;;;;;5113545;28;20461;-71
2022/07/01 14:57:47;;;;;;;8.30;7.50;;;;;;;;;;5118558;27;20947;-71
2022/07/01 15:00:16;;;;;;;9.00;7.90;;;;;;;;;;5132958;27;20534;-71
2022/07/01 15:02:46;;;;;;;10.60;8.90;;;;;;;;;;5130666;27;20442;-72
2022/07/01 15:05:16;;;;;;;10.73;9.10;;;;;;;;;;5114059;27;22512;-71
2022/07/01 15:07:44;;;;;;;11.07;7.83;;;;;;;;;;5123083;27;20456;-71
2022/07/01 15:10:15;;;;;;;8.83;7.90;;;;;;;;;;5132772;27;20486;-71
2022/07/01 15:12:43;;;;;;;10.40;8.80;;;;;;;;;;5133686;27;20442;-71
2022/07/01 15:15:11;;;;;;;14.90;9.23;;;;;;;;;;5133980;27;20811;-71
2022/07/01 15:17:42;;;;;;;8.30;7.50;;;;;;;;;;5132101;27;20461;-71
2022/07/01 15:20:11;;;;;;;8.87;8.10;;;;;;;;;;5131551;27;20458;-70